Tuesday, September 02, 2014
16:50 UTC
  |  Log In   |  Register Free
Airport Search:

Talladega Municipal Airport
(KASN)

Talladega Municipal Airport Diagram
No Airport Diagram Available

FAA data valid effective July 24, 2014 until September 18, 2014 (unless otherwise noted).

 
 
 
 
 
 
 
 
 
 
 
 
 
 

Current Aviation Weather for Talladega Municipal Airport (KASN)

The most recent METAR observation for KANB was updated at: 1553 UTC
METAR Summary (Translated METAR)
KANB
021553Z AUTO VRB05KT 10SM CLR 30/22 A3012 RMK AO2 SLP188 T03000217
KGAD
(25.8 nm NW from KANB)
021555Z 27007KT 10SM SCT035 31/20 A3010 RMK AO1
TAF Summary (Translated TAF)
KANB
021136Z 0212/0312 00000KT P6SM SKC FM021500 24005KT P6SM SCT050 SCT150 FM030000 00000KT P6SM SCT150
  Airport Weather Conditions for KASN

Current weather conditions are
not available for ASN


The nearest NOAA weather station
is at ANB, (9.7 nm NE from ASN)
  
 Current Weather at ANB
86° F
Fair
Variable winds at 5.8 mph
ANB NOAA Radar

Pressure: 30.12 in
Humidity: 61%
Wind: Variable at 5.8 MPH (5 KT)
Dew Point: 71.1°F
Visibility: 10.00 mi


Airport Weather Forecast for KASN

Translated METAR and TAF for KANB
Translated METAR for KANB (1644 UTC 02 September 2014)
found at http://aviationweather.gov/adds/metars/
 
METAR text: KANB 021553Z AUTO VRB05KT 10SM CLR 30/22 A3012 RMK AO2 SLP188 T03000217
Conditions at: KANB (ANNISTON , AL, US) observed 1553 UTC 02 September 2014
Temperature: 30.0°C (86°F)
Dewpoint: 21.7°C (71°F) [RH = 61%]
Pressure (altimeter): 30.12 inches Hg (1020.1 mb)
[Sea-level pressure: 1018.8 mb]
Winds: variable direction winds at 6 MPH (5 knots; 2.6 m/s)
Visibility: 10 or more miles (16+ km)
Ceiling: at least 12,000 feet AGL
Clouds: sky clear below 12,000 feet AGL
Weather: automated observation with no human augmentation;
there may or may not be significant weather present at this time
Translated TAF for KANB
Forecast for: KANB (ANNISTON , AL, US)
TAF Text: KANB 021136Z 0212/0312 00000KT P6SM SKC
Forecast period: 1200 to 1500 UTC 02 September 2014
Forecast type: FROM: standard forecast or significant change
Winds: calm
Visibility: 6 or more miles (10+ km)
Clouds: clear skies
Weather: no significant weather forecast for this period
TAF Text: FM021500 24005KT P6SM SCT050 SCT150
Forecast period: 1500 UTC 02 September 2014 to 0000 UTC 03 September 2014
Forecast type: FROM: standard forecast or significant change
Winds: from the WSW (240 degrees) at 6 MPH (5 knots; 2.6 m/s)
Visibility: 6 or more miles (10+ km)
Clouds: scattered clouds at 5000 feet AGL
scattered clouds at 15000 feet AGL
Weather: no significant weather forecast for this period
TAF Text: FM030000 00000KT P6SM SCT150
Forecast period: 0000 to 1200 UTC 03 September 2014
Forecast type: FROM: standard forecast or significant change
Winds: calm
Visibility: 6 or more miles (10+ km)
Clouds: scattered clouds at 15000 feet AGL
Weather: no significant weather forecast for this period

Find All Airport Services Find A Hotel Find A Rental Car Find A Golf Course Find A Restaurant $100 Hamburger



FBO's on the Field
FBO Company Facility Photos Services Transportation Aviation Fuel Prices: Prices include tax
Catering Weather Repair Courtesy Rental Type 100LL JetA JetA+ MOGAS 8087
 
Talladega Municipal

This FBO has not yet been rated
FS:Texaco
Last Updated: Aug-12
Login to update fuel prices
SS:
Contact Talladega MunicipalMore FBO Information
 
Add another FBO Facility Photos Catering Weather Repair Courtesy Rental Type 100LL JetA JetA+ MOGAS 8087
Services Transportation Aviation Fuel Prices: Prices include tax


GlobalAir.com Airport Resource Center model-print
model-print
model-print
model-print